createdAt,value
2023-04-10T00:00:22.080Z,39.133333
2023-04-10T00:05:24.735Z,39.928571
2023-04-10T00:10:26.912Z,39.133333
2023-04-10T00:15:29.063Z,37.266667
2023-04-10T00:20:31.208Z,37.666667
2023-04-10T00:25:33.170Z,38.266667
2023-04-10T00:30:35.287Z,38.133333
2023-04-10T00:35:17.725Z,37.866667
2023-04-10T00:40:19.996Z,37.800000
2023-04-10T00:45:21.923Z,38.066667
2023-04-10T00:50:24.066Z,38.000000
2023-04-10T00:55:26.902Z,38.200000
2023-04-10T01:00:29.313Z,37.533333
2023-04-10T01:05:31.256Z,37.866667
2023-04-10T01:10:33.206Z,38.333333
2023-04-10T01:15:35.217Z,38.666667
2023-04-10T01:20:17.213Z,39.333333
2023-04-10T01:25:19.443Z,39.000000
2023-04-10T01:30:21.741Z,40.066667
2023-04-10T01:35:24.227Z,41.071429
2023-04-10T01:40:26.347Z,42.666667
2023-04-10T01:45:28.248Z,44.000000
2023-04-10T01:50:30.400Z,45.133333
2023-04-10T01:55:32.320Z,44.000000
2023-04-10T02:00:34.721Z,44.866667
2023-04-10T02:05:16.719Z,44.866667
2023-04-10T02:10:19.212Z,44.866667
2023-04-10T02:15:21.202Z,44.800000
2023-04-10T02:20:23.617Z,43.785714
2023-04-10T02:25:25.887Z,44.333333
2023-04-10T02:30:27.923Z,45.933333
2023-04-10T02:35:30.032Z,47.000000
2023-04-10T02:40:32.096Z,47.200000
2023-04-10T02:45:34.365Z,48.800000
2023-04-10T02:50:16.178Z,49.933333
2023-04-10T02:55:18.586Z,51.066667
2023-04-10T03:00:20.748Z,51.933333
2023-04-10T03:05:22.687Z,52.285714
2023-04-10T03:10:25.009Z,52.533333
2023-04-10T03:15:27.291Z,53.466667
2023-04-10T03:20:29.379Z,56.266667
2023-04-10T03:25:31.437Z,58.066667
2023-04-10T03:30:33.469Z,59.066667
2023-04-10T03:35:35.464Z,58.733333
2023-04-10T03:40:17.660Z,54.866667
2023-04-10T03:45:20.047Z,54.333333
2023-04-10T03:50:21.954Z,54.200000
2023-04-10T03:55:24.089Z,55.428571
2023-04-10T04:00:26.990Z,55.000000
2023-04-10T04:05:28.912Z,54.400000
2023-04-10T04:10:31.475Z,54.333333
2023-04-10T04:15:33.598Z,54.000000
2023-04-10T04:20:35.565Z,55.466667
2023-04-10T04:25:17.576Z,59.200000
2023-04-10T04:30:19.814Z,60.400000
2023-04-10T04:35:21.787Z,59.933333
2023-04-10T04:40:23.828Z,60.071429
2023-04-10T04:45:26.208Z,59.400000
2023-04-10T04:50:28.499Z,58.933333
2023-04-10T04:55:30.469Z,59.333333
2023-04-10T05:00:32.411Z,59.200000
2023-04-10T05:05:34.632Z,60.266667
2023-04-10T05:10:16.767Z,61.266667
2023-04-10T05:15:19.057Z,62.333333
2023-04-10T05:20:21.867Z,63.666667
2023-04-10T05:25:23.889Z,64.428571
2023-04-10T05:30:25.990Z,65.800000
2023-04-10T05:35:28.534Z,65.866667
2023-04-10T05:40:30.540Z,67.000000
2023-04-10T05:45:32.724Z,66.866667
2023-04-10T05:50:34.749Z,67.133333
2023-04-10T05:55:16.640Z,68.466667
2023-04-10T06:00:18.701Z,69.000000
2023-04-10T06:05:21.243Z,69.200000
2023-04-10T06:10:23.380Z,69.571429
2023-04-10T06:15:25.288Z,70.333333
2023-04-10T06:20:27.446Z,71.666667
2023-04-10T06:25:29.563Z,74.266667
2023-04-10T06:30:31.746Z,76.866667
2023-04-10T06:35:34.082Z,80.666667
2023-04-10T06:40:15.912Z,83.066667
2023-04-10T06:45:18.034Z,85.400000
2023-04-10T06:50:20.303Z,86.266667
2023-04-10T06:55:22.400Z,87.214286
2023-04-10T07:00:24.481Z,88.066667
2023-04-10T07:05:27.312Z,88.666667
2023-04-10T07:10:29.300Z,89.800000
2023-04-10T07:15:31.615Z,90.000000
2023-04-10T07:20:33.655Z,90.133333
2023-04-10T07:25:36.005Z,90.666667
2023-04-10T07:30:17.725Z,91.000000
2023-04-10T07:35:20.018Z,91.933333
2023-04-10T07:40:22.191Z,92.000000
2023-04-10T07:45:24.477Z,92.600000
2023-04-10T07:50:26.633Z,93.000000
2023-04-10T07:55:28.885Z,93.000000
2023-04-10T08:00:30.832Z,93.000000
2023-04-10T08:05:33.036Z,93.000000
2023-04-10T08:10:35.874Z,93.000000
2023-04-10T08:15:17.384Z,93.000000
2023-04-10T08:20:19.433Z,92.600000
2023-04-10T08:25:21.521Z,92.400000
2023-04-10T08:30:23.820Z,92.571429
2023-04-10T08:35:25.866Z,92.800000
2023-04-10T08:40:27.883Z,92.266667
2023-04-10T08:45:30.098Z,93.000000
2023-04-10T08:50:32.065Z,93.133333
2023-04-10T08:55:34.591Z,94.000000
2023-04-10T09:01:21.842Z,94.000000
2023-04-10T09:05:18.632Z,94.000000
2023-04-10T09:10:20.885Z,94.866667
2023-04-10T09:15:22.807Z,95.000000
2023-04-10T09:20:25.296Z,95.400000
2023-04-10T09:25:27.531Z,96.000000
2023-04-10T09:30:29.581Z,96.000000
2023-04-10T09:35:32.127Z,96.133333
2023-04-10T09:40:34.372Z,96.000000
2023-04-10T09:45:16.127Z,95.600000
2023-04-10T09:50:18.665Z,94.400000
2023-04-10T09:55:20.860Z,92.533333
2023-04-10T10:00:22.982Z,90.928571
2023-04-10T10:05:25.096Z,90.000000
2023-04-10T10:10:27.240Z,89.466667
2023-04-10T10:15:29.459Z,88.600000
2023-04-10T10:20:31.313Z,88.000000
2023-04-10T10:25:33.932Z,88.000000
2023-04-10T10:30:28.828Z,88.000000
2023-04-10T10:35:18.508Z,88.000000
2023-04-10T10:40:20.622Z,88.000000
2023-04-10T10:45:23.268Z,88.571429
2023-04-10T10:50:25.184Z,89.000000
2023-04-10T10:55:27.313Z,89.000000
2023-04-10T11:00:29.618Z,90.000000
2023-04-10T11:05:32.248Z,90.000000
2023-04-10T11:10:35.182Z,90.666667
2023-04-10T11:15:16.411Z,91.133333
2023-04-10T11:20:18.901Z,92.000000
2023-04-10T11:25:20.967Z,92.200000
2023-04-10T11:30:23.132Z,93.000000
2023-04-10T11:35:25.370Z,93.000000
2023-04-10T11:40:27.477Z,93.000000
2023-04-10T11:45:29.831Z,93.200000
2023-04-10T11:50:32.014Z,93.933333
2023-04-10T11:55:34.305Z,94.000000
2023-04-10T12:00:16.307Z,94.133333
2023-04-10T12:05:18.530Z,94.933333
2023-04-10T12:10:20.610Z,95.000000
2023-04-10T12:15:23.377Z,95.000000
2023-04-10T12:20:25.842Z,95.000000
2023-04-10T12:25:30.209Z,95.000000
2023-04-10T12:30:34.403Z,95.000000
2023-04-10T12:35:16.531Z,95.933333
2023-04-10T12:40:18.762Z,96.000000
2023-04-10T12:45:21.184Z,96.000000
2023-04-10T12:50:23.490Z,96.000000
2023-04-10T12:55:25.985Z,96.000000
2023-04-10T13:00:28.322Z,96.066667
2023-04-10T13:05:31.110Z,96.933333
2023-04-10T13:10:33.010Z,97.000000
2023-04-10T13:15:35.335Z,97.000000
2023-04-10T13:20:17.115Z,97.000000
2023-04-10T13:25:19.538Z,97.000000
2023-04-10T13:30:21.975Z,96.933333
2023-04-10T13:35:24.119Z,96.071429
2023-04-10T13:40:26.430Z,95.933333
2023-04-10T13:45:28.539Z,95.066667
2023-04-10T13:50:30.591Z,93.733333
2023-04-10T13:55:32.785Z,92.400000
2023-04-10T14:00:35.158Z,90.466667
2023-04-10T14:05:17.243Z,89.000000
2023-04-10T14:10:19.160Z,88.200000
2023-04-10T14:15:21.587Z,89.000000
2023-04-10T14:20:23.954Z,87.928571
2023-04-10T14:25:26.910Z,86.266667
2023-04-10T14:30:29.122Z,83.666667
2023-04-10T14:35:31.669Z,83.466667
2023-04-10T14:40:34.040Z,83.000000
2023-04-10T14:45:35.915Z,82.000000
2023-04-10T14:50:17.835Z,80.533333
2023-04-10T14:55:19.872Z,78.933333
2023-04-10T15:00:21.713Z,78.600000
2023-04-10T15:05:24.053Z,78.571429
2023-04-10T15:10:26.059Z,78.533333
2023-04-10T15:15:28.452Z,78.000000
2023-04-10T15:20:31.079Z,77.200000
2023-04-10T15:25:33.173Z,75.733333
2023-04-10T15:30:35.981Z,74.533333
2023-04-10T15:35:18.192Z,72.600000
2023-04-10T15:40:20.446Z,72.133333
2023-04-10T15:45:22.712Z,72.000000
2023-04-10T15:50:24.730Z,72.466667
2023-04-10T15:55:27.476Z,72.466667
2023-04-10T16:00:29.172Z,70.866667
2023-04-10T16:05:31.583Z,70.000000
2023-04-10T16:10:33.828Z,71.600000
2023-04-10T16:15:15.876Z,73.666667
2023-04-10T16:20:18.419Z,74.200000
2023-04-10T16:25:21.739Z,74.000000
2023-04-10T16:30:22.667Z,72.928571
2023-04-10T16:35:24.899Z,71.800000
2023-04-10T16:40:27.331Z,71.933333
2023-04-10T16:45:29.346Z,71.000000
2023-04-10T16:50:31.616Z,69.000000
2023-04-10T16:55:33.584Z,69.066667
2023-04-10T17:00:35.677Z,68.933333
2023-04-10T17:05:18.061Z,67.733333
2023-04-10T17:10:20.372Z,68.066667
2023-04-10T17:15:22.206Z,66.642857
2023-04-10T17:20:24.969Z,65.066667
2023-04-10T17:25:27.303Z,64.066667
2023-04-10T17:30:29.346Z,62.466667
2023-04-10T17:35:32.025Z,61.733333
2023-04-10T17:40:34.504Z,61.466667
2023-04-10T17:45:16.257Z,61.733333
2023-04-10T17:50:18.604Z,60.333333
2023-04-10T17:55:21.391Z,58.666667
2023-04-10T18:00:23.047Z,57.785714
2023-04-10T18:05:25.486Z,56.333333
2023-04-10T18:10:27.813Z,55.133333
2023-04-10T18:15:29.871Z,54.933333
2023-04-10T18:20:31.991Z,55.333333
2023-04-10T18:25:34.703Z,54.400000
2023-04-10T18:30:16.780Z,53.066667
2023-04-10T18:35:18.873Z,53.666667
2023-04-10T18:40:21.047Z,54.533333
2023-04-10T18:45:23.211Z,53.071429
2023-04-10T18:50:25.528Z,52.066667
2023-04-10T18:55:27.890Z,51.800000
2023-04-10T19:00:30.001Z,51.066667
2023-04-10T19:05:32.024Z,50.533333
2023-04-10T19:10:34.640Z,50.800000
2023-04-10T19:15:16.624Z,50.466667
2023-04-10T19:20:18.394Z,49.066667
2023-04-10T19:25:20.276Z,48.533333
2023-04-10T19:30:22.575Z,48.857143
2023-04-10T19:35:24.890Z,48.466667
2023-04-10T19:40:26.870Z,48.533333
2023-04-10T19:45:29.596Z,48.533333
2023-04-10T19:50:31.733Z,48.066667
2023-04-10T19:55:34.520Z,48.333333
2023-04-10T20:00:16.169Z,48.133333
2023-04-10T20:05:18.054Z,47.333333
2023-04-10T20:10:20.750Z,47.266667
2023-04-10T20:15:22.855Z,46.571429
2023-04-10T20:20:24.684Z,46.800000
2023-04-10T20:25:27.026Z,47.666667
2023-04-10T20:30:29.171Z,46.600000
2023-04-10T20:35:30.997Z,46.466667
2023-04-10T20:40:33.006Z,48.466667
2023-04-10T20:45:34.903Z,49.400000
2023-04-10T20:50:16.997Z,49.266667
2023-04-10T20:55:20.602Z,49.533333
2023-04-10T21:00:22.383Z,47.857143
2023-04-10T21:05:24.480Z,46.800000
2023-04-10T21:10:26.399Z,45.133333
2023-04-10T21:15:28.449Z,43.533333
2023-04-10T21:20:30.781Z,46.000000
2023-04-10T21:25:32.965Z,46.266667
2023-04-10T21:30:35.412Z,45.133333
2023-04-10T21:35:16.978Z,46.000000
2023-04-10T21:40:18.978Z,45.133333
2023-04-10T21:45:21.019Z,44.133333
2023-04-10T21:50:23.217Z,43.357143
2023-04-10T21:55:25.229Z,43.133333
2023-04-10T22:00:27.227Z,48.200000
2023-04-10T22:05:29.649Z,49.200000
2023-04-10T22:10:31.877Z,51.066667
2023-04-10T22:15:34.784Z,48.066667
2023-04-10T22:20:16.409Z,47.666667
2023-04-10T22:25:19.259Z,48.800000
2023-04-10T22:30:21.565Z,49.933333
2023-04-10T22:35:23.879Z,49.571429
2023-04-10T22:40:25.924Z,50.333333
2023-04-10T22:45:27.899Z,50.000000
2023-04-10T22:50:30.098Z,49.266667
2023-04-10T22:55:32.120Z,48.533333
2023-04-10T23:00:34.083Z,47.666667
2023-04-10T23:05:16.075Z,48.800000
2023-04-10T23:10:18.539Z,47.266667
2023-04-10T23:15:21.008Z,47.466667
2023-04-10T23:20:23.309Z,47.285714
2023-04-10T23:25:25.418Z,48.133333
2023-04-10T23:30:27.571Z,48.333333
2023-04-10T23:35:29.958Z,48.133333
2023-04-10T23:40:31.917Z,47.600000
2023-04-10T23:45:33.838Z,46.933333
2023-04-10T23:50:15.942Z,47.266667
2023-04-10T23:55:18.287Z,46.200000
